| time (UTC) | temp F | wind direction | speed MPH | gust MPH | rain 1hr in | rain 24hr in | rain mn in | humidity % | barometer mb |
| 20260502221551 | 42 | 250 | 1.0 | 6.0 | 0.00 | 0.00 | 0.00 | 72 | 1016.1 |
| 20260502221009 | 42 | 245 | 1.0 | 5.0 | 0.00 | 0.00 | 0.00 | 71 | 1016.0 |
| 20260502220532 | 42 | 254 | 1.0 | 5.0 | 0.00 | 0.00 | 0.00 | 71 | 1016.1 |
| 20260502220048 | 42 | 291 | 2.0 | 6.0 | 0.00 | 0.01 | 0.00 | 70 | 1016.1 |
| 20260502215505 | 43 | 248 | 2.0 | 7.0 | 0.00 | 0.01 | 0.00 | 70 | 1016.1 |
| 20260502215025 | 43 | 268 | 3.0 | 7.0 | 0.00 | 0.01 | 0.00 | 68 | 1016.1 |
| 20260502214549 | 43 | 275 | 2.0 | 7.0 | 0.00 | 0.01 | 0.00 | 67 | 1016.0 |
| 20260502214007 | 44 | 260 | 2.0 | 7.0 | 0.00 | 0.01 | 0.00 | 66 | 1016.0 |
| 20260502213525 | 44 | 242 | 1.0 | 7.0 | 0.00 | 0.01 | 0.00 | 66 | 1015.9 |
| 20260502213100 | 45 | 261 | 2.0 | 7.0 | 0.00 | 0.01 | 0.00 | 63 | 1016.0 |
| 20260502212511 | 45 | 249 | 1.0 | 3.0 | 0.00 | 0.01 | 0.00 | 60 | 1015.8 |
| 20260502212036 | 45 | 273 | 1.0 | 3.0 | 0.00 | 0.01 | 0.00 | 59 | 1015.8 |
| 20260502211629 | 45 | 326 | 0.0 | 3.0 | 0.00 | 0.01 | 0.00 | 60 | 1015.9 |
| 20260502211017 | 45 | 326 | 0.0 | 3.0 | 0.00 | 0.01 | 0.00 | 58 | 1015.8 |
| 20260502210541 | 45 | 9 | 0.0 | 3.0 | 0.00 | 0.01 | 0.00 | 60 | 1015.9 |
| 20260502210110 | 45 | 15 | 1.0 | 3.0 | 0.00 | 0.02 | 0.00 | 59 | 1015.9 |
| 20260502205511 | 45 | 335 | 1.0 | 3.0 | 0.00 | 0.02 | 0.00 | 61 | 1015.9 |
| 20260502205029 | 45 | 270 | 0.0 | 3.0 | 0.00 | 0.02 | 0.00 | 62 | 1015.9 |
| 20260502204507 | 45 | 309 | 1.0 | 3.0 | 0.00 | 0.02 | 0.00 | 63 | 1015.8 |
| 20260502204032 | 45 | 245 | 0.0 | 3.0 | 0.00 | 0.02 | 0.00 | 64 | 1015.8 |
| 20260502203547 | 45 | 245 | 1.0 | 3.0 | 0.00 | 0.02 | 0.00 | 63 | 1015.9 |
| 20260502203007 | 44 | 355 | 1.0 | 3.0 | 0.00 | 0.02 | 0.00 | 62 | 1015.9 |
| 20260502202528 | 44 | 281 | 0.0 | 3.0 | 0.00 | 0.02 | 0.00 | 64 | 1015.9 |
| 20260502202048 | 44 | 326 | 1.0 | 3.0 | 0.00 | 0.02 | 0.00 | 64 | 1015.9 |
| 20260502201510 | 44 | 295 | 0.0 | 3.0 | 0.00 | 0.02 | 0.00 | 65 | 1015.9 |
| 20260502201029 | 44 | 308 | 1.0 | 3.0 | 0.00 | 0.02 | 0.00 | 65 | 1015.9 |
| 20260502200551 | 44 | 264 | 1.0 | 3.0 | 0.00 | 0.02 | 0.00 | 66 | 1016.0 |
| 20260502200013 | 44 | 267 | 1.0 | 2.0 | 0.00 | 0.05 | 0.00 | 65 | 1016.0 |
| 20260502195536 | 45 | 265 | 0.0 | 3.0 | 0.00 | 0.05 | 0.00 | 65 | 1016.1 |
| 20260502195051 | 45 | 331 | 1.0 | 3.0 | 0.00 | 0.05 | 0.00 | 64 | 1016.1 |
| 20260502194511 | 45 | 306 | 0.0 | 4.0 | 0.00 | 0.05 | 0.00 | 65 | 1016.0 |
| 20260502194026 | 45 | 355 | 1.0 | 3.0 | 0.00 | 0.05 | 0.00 | 65 | 1016.1 |
| 20260502193503 | 45 | 256 | 1.0 | 6.0 | 0.00 | 0.05 | 0.00 | 65 | 1016.1 |
| 20260502193025 | 45 | 344 | 1.0 | 6.0 | 0.00 | 0.05 | 0.00 | 65 | 1016.1 |
| 20260502192503 | 45 | 30 | 0.0 | 2.0 | 0.00 | 0.05 | 0.00 | 66 | 1016.2 |
| 20260502192021 | 45 | 319 | 0.0 | 5.0 | 0.00 | 0.05 | 0.00 | 68 | 1016.3 |
| 20260502191546 | 45 | 317 | 0.0 | 5.0 | 0.00 | 0.05 | 0.00 | 68 | 1016.3 |
| 20260502191001 | 45 | 321 | 0.0 | 5.0 | 0.00 | 0.05 | 0.00 | 68 | 1016.3 |
| 20260502190515 | 45 | 44 | 1.0 | 3.0 | 0.00 | 0.05 | 0.00 | 68 | 1016.2 |
| 20260502190040 | 44 | 286 | 0.0 | 3.0 | 0.00 | 0.06 | 0.00 | 66 | 1016.2 |
| 20260502185554 | 45 | 290 | 1.0 | 3.0 | 0.00 | 0.06 | 0.00 | 64 | 1016.2 |
| 20260502185014 | 45 | 344 | 1.0 | 3.0 | 0.00 | 0.06 | 0.00 | 66 | 1016.1 |
| 20260502184549 | 45 | 257 | 1.0 | 3.0 | 0.00 | 0.06 | 0.00 | 65 | 1016.0 |
| 20260502184047 | 45 | 327 | 1.0 | 6.0 | 0.00 | 0.06 | 0.00 | 63 | 1015.9 |
| 20260502183531 | 45 | 312 | 2.0 | 6.0 | 0.00 | 0.06 | 0.00 | 63 | 1015.9 |
| 20260502183058 | 45 | 340 | 1.0 | 4.0 | 0.00 | 0.06 | 0.00 | 64 | 1015.9 |
| 20260502182505 | 46 | 252 | 1.0 | 4.0 | 0.00 | 0.06 | 0.00 | 64 | 1016.0 |
| 20260502182025 | 45 | 250 | 2.0 | 4.0 | 0.00 | 0.06 | 0.00 | 66 | 1016.0 |
| 20260502181544 | 45 | 257 | 1.0 | 4.0 | 0.00 | 0.06 | 0.00 | 66 | 1015.9 |
| 20260502181059 | 44 | 246 | 1.0 | 4.0 | 0.00 | 0.06 | 0.00 | 66 | 1015.9 |
| 20260502181002 | 44 | 243 | 1.0 | 4.0 | 0.00 | 0.06 | 0.00 | 65 | 1016.0 |
| 20260502180517 | 44 | 27 | 2.0 | 4.0 | 0.00 | 0.06 | 0.00 | 66 | 1015.8 |
| 20260502170509 | 47 | 266 | 2.0 | 5.0 | 0.00 | 0.06 | 0.00 | 60 | 1015.7 |
| 20260502164049 | 47 | 273 | 1.0 | 6.0 | 0.00 | 0.06 | 0.00 | 57 | 1015.8 |
| 20260502163503 | 46 | 275 | 2.0 | 8.0 | 0.00 | 0.06 | 0.00 | 60 | 1015.8 |
| 20260502163049 | 46 | 263 | 1.0 | 8.0 | 0.00 | 0.06 | 0.00 | 60 | 1015.8 |
| 20260502162557 | 46 | 252 | 1.0 | 5.0 | 0.00 | 0.06 | 0.00 | 58 | 1015.9 |
| 20260502162019 | 46 | 340 | 1.0 | 5.0 | 0.00 | 0.06 | 0.00 | 57 | 1016.0 |
| 20260502161541 | 46 | 257 | 1.0 | 3.0 | 0.00 | 0.06 | 0.00 | 57 | 1015.8 |
| 20260502161056 | 46 | 249 | 1.0 | 7.0 | 0.00 | 0.06 | 0.00 | 58 | 1016.0 |
| 20260502160513 | 46 | 286 | 2.0 | 7.0 | 0.00 | 0.06 | 0.00 | 58 | 1016.0 |
| 20260502152057 | 44 | 236 | 3.0 | 5.0 | 0.00 | 0.06 | 0.00 | 57 | 1016.3 |
| 20260502151528 | 44 | 257 | 2.0 | 5.0 | 0.00 | 0.06 | 0.00 | 56 | 1016.3 |
| 20260502151038 | 45 | 322 | 1.0 | 6.0 | 0.00 | 0.06 | 0.00 | 62 | 1016.2 |
| 20260502150556 | 44 | 351 | 2.0 | 6.0 | 0.00 | 0.06 | 0.00 | 62 | 1016.1 |
| 20260502130555 | 41 | 250 | 1.0 | 5.0 | 0.00 | 0.06 | 0.00 | 77 | 1016.9 |
| 20260502123600 | 40 | 246 | 1.0 | 3.0 | 0.00 | 0.06 | 0.00 | 81 | 1016.8 |
| 20260502123502 | 39 | 246 | 1.0 | 3.0 | 0.00 | 0.06 | 0.00 | 81 | 1016.9 |
| 20260502123028 | 39 | 246 | 0.0 | 3.0 | 0.00 | 0.06 | 0.00 | 82 | 1016.9 |
| 20260502122544 | 39 | 246 | 1.0 | 3.0 | 0.00 | 0.06 | 0.00 | 82 | 1016.9 |
| 20260502122100 | 38 | 252 | 1.0 | 4.0 | 0.00 | 0.06 | 0.00 | 83 | 1016.9 |
| 20260502122002 | 38 | 252 | 1.0 | 4.0 | 0.00 | 0.06 | 0.00 | 83 | 1017.0 |
| 20260502121515 | 38 | 259 | 2.0 | 4.0 | 0.00 | 0.06 | 0.00 | 84 | 1017.0 |
| 20260502121029 | 38 | 257 | 1.0 | 3.0 | 0.00 | 0.06 | 0.00 | 85 | 1017.0 |
| 20260502120542 | 37 | 259 | 0.0 | 3.0 | 0.00 | 0.06 | 0.00 | 86 | 1016.8 |
| 20260502115516 | 36 | 257 | 1.0 | 3.0 | 0.00 | 0.06 | 0.00 | 87 | 1016.9 |
| 20260502115036 | 36 | 267 | 1.0 | 3.0 | 0.00 | 0.06 | 0.00 | 87 | 1016.9 |
| 20260502114607 | 36 | 242 | 1.0 | 5.0 | 0.00 | 0.06 | 0.00 | 87 | 1017.0 |
| 20260502114014 | 35 | 238 | 1.0 | 4.0 | 0.00 | 0.06 | 0.00 | 87 | 1017.0 |
| 20260502113538 | 35 | 255 | 1.0 | 4.0 | 0.00 | 0.06 | 0.00 | 88 | 1017.0 |
| 20260502113055 | 35 | 247 | 1.0 | 4.0 | 0.00 | 0.06 | 0.00 | 88 | 1017.1 |
| 20260502112513 | 35 | 260 | 2.0 | 4.0 | 0.00 | 0.06 | 0.00 | 88 | 1017.0 |
| 20260502112036 | 35 | 270 | 2.0 | 4.0 | 0.00 | 0.06 | 0.00 | 88 | 1016.9 |
| 20260502111554 | 35 | 265 | 1.0 | 6.0 | 0.00 | 0.06 | 0.00 | 88 | 1016.9 |
| 20260502111006 | 34 | 242 | 1.0 | 4.0 | 0.00 | 0.06 | 0.00 | 89 | 1016.9 |
| 20260502110519 | 34 | 281 | 1.0 | 3.0 | 0.00 | 0.06 | 0.00 | 89 | 1016.9 |
| 20260502110037 | 34 | 268 | 1.0 | 3.0 | 0.00 | 0.06 | 0.00 | 89 | 1016.8 |
| 20260502105552 | 34 | 256 | 1.0 | 3.0 | 0.00 | 0.06 | 0.00 | 89 | 1016.8 |
| 20260502105011 | 34 | 252 | 1.0 | 2.0 | 0.00 | 0.06 | 0.00 | 89 | 1016.7 |
| 20260502104546 | 34 | 255 | 1.0 | 2.0 | 0.00 | 0.06 | 0.00 | 89 | 1016.6 |
| 20260502104057 | 34 | 255 | 0.0 | 3.0 | 0.00 | 0.06 | 0.00 | 89 | 1016.5 |
| 20260502103514 | 34 | 255 | 1.0 | 3.0 | 0.00 | 0.06 | 0.00 | 89 | 1016.6 |
| 20260502103037 | 34 | 261 | 1.0 | 2.0 | 0.00 | 0.06 | 0.00 | 89 | 1016.6 |
| 20260502102550 | 34 | 263 | 0.0 | 2.0 | 0.00 | 0.06 | 0.00 | 89 | 1016.4 |
| 20260502102010 | 34 | 277 | 0.0 | 2.0 | 0.00 | 0.06 | 0.00 | 89 | 1016.4 |
| 20260502101552 | 34 | 277 | 1.0 | 2.0 | 0.00 | 0.06 | 0.00 | 89 | 1016.3 |
| 20260502101051 | 34 | 319 | 0.0 | 1.0 | 0.00 | 0.06 | 0.00 | 89 | 1016.3 |
| 20260502100511 | 34 | 319 | 0.0 | 2.0 | 0.00 | 0.06 | 0.00 | 89 | 1016.3 |
| 20260502091523 | 35 | 319 | 0.0 | 1.0 | 0.00 | 0.06 | 0.00 | 87 | 1016.1 |
| 20260502091034 | 35 | 319 | 0.0 | 1.0 | 0.00 | 0.06 | 0.00 | 87 | 1016.1 |
| 20260502090511 | 35 | 319 | 0.0 | 1.0 | 0.00 | 0.06 | 0.00 | 87 | 1016.0 |
| 20260502071534 | 37 | 355 | 0.0 | 1.0 | 0.00 | 0.06 | 0.00 | 83 | 1015.2 |
| 20260502071051 | 38 | 355 | 0.0 | 1.0 | 0.00 | 0.06 | 0.00 | 83 | 1015.2 |
| 20260502070507 | 38 | 355 | 0.0 | 2.0 | 0.00 | 0.06 | 0.00 | 83 | 1015.2 |
| 20260502070049 | 38 | 355 | 0.0 | 2.0 | 0.00 | 0.06 | 0.00 | 83 | 1015.2 |
| 20260502065548 | 38 | 5 | 0.0 | 2.0 | 0.00 | 0.06 | 0.00 | 83 | 1015.2 |
| 20260502065007 | 38 | 5 | 0.0 | 1.0 | 0.00 | 0.06 | 0.00 | 84 | 1015.4 |
| 20260502064525 | 38 | 5 | 0.0 | 1.0 | 0.00 | 0.06 | 0.00 | 84 | 1015.3 |
| 20260502064049 | 38 | 5 | 0.0 | 1.0 | 0.00 | 0.06 | 0.00 | 83 | 1015.3 |
| 20260502063511 | 38 | 5 | 0.0 | 1.0 | 0.00 | 0.06 | 0.00 | 83 | 1015.3 |
| 20260502063038 | 39 | 5 | 0.0 | 1.0 | 0.00 | 0.06 | 0.00 | 83 | 1015.3 |
| 20260502062550 | 39 | 5 | 0.0 | 3.0 | 0.00 | 0.06 | 0.00 | 83 | 1015.3 |
| 20260502062004 | 39 | 340 | 0.0 | 2.0 | 0.00 | 0.06 | 0.00 | 83 | 1015.2 |
| 20260502061515 | 39 | 333 | 0.0 | 2.0 | 0.00 | 0.06 | 0.00 | 84 | 1015.4 |
| 20260502061035 | 39 | 327 | 0.0 | 2.0 | 0.00 | 0.06 | 0.00 | 85 | 1015.5 |
| 20260502060549 | 40 | 5 | 0.0 | 3.0 | 0.00 | 0.06 | 0.00 | 86 | 1015.3 |
| 20260502060010 | 40 | 5 | 1.0 | 3.0 | 0.00 | 0.06 | 0.00 | 86 | 1015.3 |
| 20260502055523 | 40 | 290 | 0.0 | 2.0 | 0.00 | 0.06 | 0.00 | 86 | 1015.3 |
| 20260502055045 | 40 | 286 | 0.0 | 2.0 | 0.00 | 0.06 | 0.00 | 87 | 1015.2 |
| 20260502054559 | 40 | 276 | 0.0 | 3.0 | 0.00 | 0.06 | 0.00 | 88 | 1015.1 |
| 20260502054039 | 40 | 244 | 0.0 | 3.0 | 0.00 | 0.06 | 0.00 | 88 | 1015.0 |
| 20260502053557 | 40 | 277 | 0.0 | 2.0 | 0.00 | 0.06 | 0.00 | 89 | 1014.9 |
| 20260502053017 | 40 | 284 | 0.0 | 2.0 | 0.00 | 0.06 | 0.00 | 89 | 1014.9 |
| 20260502052540 | 40 | 303 | 0.0 | 2.0 | 0.00 | 0.06 | 0.00 | 89 | 1014.8 |
| 20260502052101 | 40 | 303 | 0.0 | 2.0 | 0.00 | 0.06 | 0.00 | 89 | 1015.0 |
| 20260502051519 | 40 | 303 | 0.0 | 1.0 | 0.00 | 0.06 | 0.00 | 89 | 1015.0 |
| 20260502051033 | 40 | 303 | 0.0 | 1.0 | 0.00 | 0.06 | 0.00 | 89 | 1014.9 |
| 20260502050548 | 40 | 303 | 0.0 | 1.0 | 0.00 | 0.06 | 0.00 | 89 | 1015.0 |
| 20260502050008 | 39 | 303 | 0.0 | 0.0 | 0.00 | 0.06 | 0.00 | 89 | 1015.0 |
| 20260502045530 | 40 | 303 | 0.0 | 0.0 | 0.00 | 0.06 | 0.00 | 90 | 1014.9 |
| 20260502045046 | 40 | 303 | 0.0 | 1.0 | 0.00 | 0.06 | 0.00 | 90 | 1015.0 |
| 20260502044510 | 39 | 303 | 0.0 | 1.0 | 0.00 | 0.06 | 0.00 | 90 | 1015.0 |
| 20260502044021 | 39 | 303 | 0.0 | 0.0 | 0.00 | 0.06 | 0.00 | 89 | 1015.0 |
| 20260502043505 | 39 | 303 | 0.0 | 0.0 | 0.00 | 0.06 | 0.00 | 89 | 1015.0 |
| 20260502043025 | 40 | 303 | 0.0 | 0.0 | 0.00 | 0.06 | 0.00 | 89 | 1014.9 |
| 20260502042543 | 40 | 303 | 0.0 | 0.0 | 0.00 | 0.06 | 0.00 | 89 | 1015.0 |
| 20260502042003 | 40 | 303 | 0.0 | 0.0 | 0.00 | 0.06 | 0.00 | 89 | 1015.0 |
| 20260502041519 | 40 | 303 | 0.0 | 0.0 | 0.00 | 0.06 | 0.00 | 89 | 1015.0 |
| 20260502041042 | 40 | 303 | 0.0 | 0.0 | 0.00 | 0.06 | 0.00 | 89 | 1015.0 |
| 20260502040506 | 40 | 303 | 0.0 | 0.0 | 0.00 | 0.06 | 0.00 | 89 | 1015.1 |
| 20260502040022 | 40 | 303 | 0.0 | 0.0 | 0.00 | 0.06 | 0.06 | 89 | 1015.1 |
| 20260502035534 | 40 | 303 | 0.0 | 1.0 | 0.00 | 0.06 | 0.06 | 89 | 1015.1 |
| 20260502035046 | 40 | 303 | 0.0 | 1.0 | 0.00 | 0.06 | 0.06 | 89 | 1015.0 |
| 20260502034558 | 40 | 303 | 0.0 | 0.0 | 0.00 | 0.06 | 0.06 | 89 | 1015.0 |
| 20260502034015 | 40 | 303 | 0.0 | 0.0 | 0.00 | 0.06 | 0.06 | 89 | 1015.0 |
| 20260502033534 | 40 | 303 | 0.0 | 0.0 | 0.00 | 0.06 | 0.06 | 89 | 1015.0 |
| 20260502033050 | 40 | 303 | 0.0 | 1.0 | 0.00 | 0.06 | 0.06 | 89 | 1015.0 |
| 20260502032510 | 40 | 303 | 0.0 | 1.0 | 0.00 | 0.06 | 0.06 | 89 | 1015.0 |
| 20260502032034 | 40 | 303 | 0.0 | 1.0 | 0.00 | 0.06 | 0.06 | 88 | 1015.0 |
| 20260502031552 | 40 | 303 | 0.0 | 2.0 | 0.00 | 0.06 | 0.06 | 88 | 1015.0 |
| 20260502031014 | 41 | 303 | 0.0 | 2.0 | 0.00 | 0.06 | 0.06 | 89 | 1015.1 |
| 20260502030526 | 41 | 223 | 0.0 | 1.0 | 0.00 | 0.06 | 0.06 | 89 | 1015.2 |
| 20260502030004 | 41 | 223 | 0.0 | 1.0 | 0.00 | 0.06 | 0.06 | 90 | 1015.1 |
| 20260502025526 | 41 | 223 | 0.0 | 1.0 | 0.00 | 0.06 | 0.06 | 90 | 1015.1 |
| 20260502025046 | 41 | 223 | 0.0 | 2.0 | 0.00 | 0.06 | 0.06 | 91 | 1015.1 |
| 20260502024535 | 41 | 223 | 0.0 | 2.0 | 0.00 | 0.06 | 0.06 | 91 | 1015.0 |
| 20260502024048 | 41 | 208 | 0.0 | 1.0 | 0.00 | 0.06 | 0.06 | 91 | 1014.9 |
| 20260502023508 | 40 | 208 | 0.0 | 0.0 | 0.00 | 0.06 | 0.06 | 91 | 1015.0 |
| 20260502023026 | 40 | 208 | 0.0 | 0.0 | 0.00 | 0.06 | 0.06 | 90 | 1014.9 |
| 20260502022548 | 40 | 208 | 0.0 | 0.0 | 0.00 | 0.06 | 0.06 | 90 | 1014.8 |
| 20260502022007 | 41 | 208 | 0.0 | 0.0 | 0.00 | 0.06 | 0.06 | 90 | 1014.9 |
| 20260502021520 | 41 | 208 | 0.0 | 0.0 | 0.00 | 0.06 | 0.06 | 90 | 1014.9 |
| 20260502021044 | 41 | 208 | 0.0 | 0.0 | 0.00 | 0.06 | 0.06 | 90 | 1014.9 |
| 20260502020512 | 41 | 208 | 0.0 | 0.0 | 0.00 | 0.06 | 0.06 | 90 | 1014.8 |
| 20260502015508 | 41 | 208 | 0.0 | 0.0 | 0.00 | 0.06 | 0.06 | 90 | 1014.8 |
| 20260502015030 | 41 | 208 | 0.0 | 0.0 | 0.00 | 0.06 | 0.06 | 90 | 1014.7 |
| 20260502014550 | 41 | 208 | 0.0 | 0.0 | 0.00 | 0.06 | 0.06 | 90 | 1014.7 |
| 20260502014033 | 41 | 208 | 0.0 | 0.0 | 0.00 | 0.06 | 0.06 | 90 | 1014.6 |
| 20260502013551 | 41 | 208 | 0.0 | 0.0 | 0.00 | 0.06 | 0.06 | 90 | 1014.7 |
| 20260502013012 | 41 | 208 | 0.0 | 0.0 | 0.00 | 0.06 | 0.06 | 90 | 1014.6 |
| 20260502012536 | 41 | 208 | 0.0 | 0.0 | 0.00 | 0.06 | 0.06 | 89 | 1014.5 |
| 20260502012054 | 41 | 208 | 0.0 | 0.0 | 0.00 | 0.06 | 0.06 | 89 | 1014.5 |
| 20260502011521 | 42 | 208 | 0.0 | 0.0 | 0.00 | 0.06 | 0.06 | 89 | 1014.4 |
| 20260502011037 | 42 | 208 | 0.0 | 0.0 | 0.00 | 0.06 | 0.06 | 89 | 1014.2 |
| 20260502010555 | 42 | 208 | 0.0 | 0.0 | 0.00 | 0.06 | 0.06 | 89 | 1014.2 |
| 20260502010018 | 42 | 208 | 0.0 | 0.0 | 0.00 | 0.06 | 0.06 | 89 | 1014.1 |
| 20260502005542 | 42 | 208 | 0.0 | 0.0 | 0.00 | 0.06 | 0.06 | 89 | 1014.0 |
| 20260502005100 | 42 | 208 | 0.0 | 0.0 | 0.00 | 0.06 | 0.06 | 89 | 1013.9 |
| 20260502005002 | 42 | 208 | 0.0 | 0.0 | 0.00 | 0.06 | 0.06 | 89 | 1013.9 |
| 20260502004529 | 42 | 208 | 0.0 | 0.0 | 0.00 | 0.06 | 0.06 | 89 | 1013.8 |
| 20260502004042 | 42 | 208 | 0.0 | 0.0 | 0.00 | 0.06 | 0.06 | 89 | 1013.8 |
| 20260502003555 | 43 | 208 | 0.0 | 0.0 | 0.00 | 0.06 | 0.06 | 89 | 1013.7 |
| 20260502003011 | 43 | 208 | 0.0 | 0.0 | 0.00 | 0.06 | 0.06 | 88 | 1013.7 |
| 20260502002534 | 43 | 208 | 0.0 | 0.0 | 0.00 | 0.06 | 0.06 | 88 | 1013.6 |
| 20260502002050 | 43 | 208 | 0.0 | 0.0 | 0.00 | 0.06 | 0.06 | 88 | 1013.6 |
| 20260502001508 | 43 | 208 | 0.0 | 0.0 | 0.00 | 0.06 | 0.06 | 88 | 1013.5 |
| 20260502001031 | 43 | 208 | 0.0 | 0.0 | 0.00 | 0.06 | 0.06 | 88 | 1013.6 |
| 20260502000547 | 43 | 208 | 0.0 | 0.0 | 0.00 | 0.06 | 0.06 | 88 | 1013.4 |
| 20260502000007 | 44 | 208 | 0.0 | 0.0 | 0.00 | 0.06 | 0.06 | 88 | 1013.5 |
| 20260501235533 | 44 | 208 | 0.0 | 0.0 | 0.00 | 0.06 | 0.06 | 88 | 1013.4 |
| 20260501235049 | 44 | 208 | 0.0 | 0.0 | 0.00 | 0.06 | 0.06 | 88 | 1013.4 |
| 20260501234511 | 44 | 208 | 0.0 | 0.0 | 0.00 | 0.06 | 0.06 | 88 | 1013.5 |
| 20260501234033 | 44 | 208 | 0.0 | 1.0 | 0.00 | 0.06 | 0.06 | 88 | 1013.3 |
| 20260501233546 | 44 | 208 | 0.0 | 1.0 | 0.00 | 0.06 | 0.06 | 88 | 1013.3 |
| 20260501233028 | 44 | 208 | 0.0 | 1.0 | 0.00 | 0.06 | 0.06 | 88 | 1013.3 |
| 20260501232544 | 44 | 208 | 0.0 | 1.0 | 0.00 | 0.06 | 0.06 | 88 | 1013.4 |
| 20260501232057 | 44 | 208 | 0.0 | 0.0 | 0.00 | 0.06 | 0.06 | 88 | 1013.2 |
| 20260501231540 | 44 | 208 | 0.0 | 1.0 | 0.00 | 0.06 | 0.06 | 88 | 1013.3 |
| 20260501231059 | 44 | 208 | 0.0 | 2.0 | 0.00 | 0.06 | 0.06 | 88 | 1013.3 |
| 20260501230525 | 44 | 208 | 0.0 | 2.0 | 0.00 | 0.06 | 0.06 | 88 | 1013.3 |
| 20260501230040 | 44 | 208 | 0.0 | 2.0 | 0.00 | 0.06 | 0.06 | 88 | 1013.3 |
| 20260501225558 | 44 | 210 | 0.0 | 1.0 | 0.01 | 0.06 | 0.06 | 88 | 1013.3 |
| 20260501225017 | 44 | 210 | 0.0 | 2.0 | 0.01 | 0.06 | 0.06 | 87 | 1013.4 |
| 20260501224538 | 44 | 223 | 0.0 | 2.0 | 0.01 | 0.06 | 0.06 | 88 | 1013.3 |
| 20260501224055 | 44 | 213 | 0.0 | 1.0 | 0.01 | 0.06 | 0.06 | 88 | 1013.3 |
| 20260501223515 | 44 | 213 | 0.0 | 2.0 | 0.01 | 0.06 | 0.06 | 88 | 1013.4 |
| 20260501223032 | 44 | 213 | 0.0 | 2.0 | 0.01 | 0.06 | 0.06 | 89 | 1013.4 |
| 20260501222551 | 44 | 213 | 0.0 | 2.0 | 0.01 | 0.06 | 0.06 | 89 | 1013.4 |